CheckWX is a tool to help pilots better visualize weather data.  It is not intended as a substitute for an official pre-flight weather briefing.

03:31:16 UTC

KFLG TAF
Flagstaff Pulliam Airport
Flagstaff, Arizona, USA
KFLG 012357Z 0200/0224 23018G28KT P6SM SCT250 FM020300 22012G20KT P6SM FEW250 FM021500 23019G29KT P6SM SCT040

Apr-2@
00:00 UTC

Apr-2 @ 00:00 UTC

Apr-2@
03:00 UTC

Apr-2 @ 03:00 UTC

TAF KFLG 012357Z 0200/0224 23018G28KT P6SM SCT250

Expired

Wind
  • 230° at 18 KTS
  • {Gusting to 28 KTS
Cloud Levels
  • Scattered at 25,000' AGL

Apr-2@
03:00 UTC

Apr-2 @ 03:00 UTC

Apr-2@
15:00 UTC

Apr-2 @ 15:00 UTC

FM020300 22012G20KT P6SM FEW250

From

From Standard forecast or significant change

Wind
  • 220° at 12 KTS
  • {Gusting to 20 KTS
Cloud Levels
  • Few at 25,000' AGL

Apr-2@
15:00 UTC

Apr-2 @ 15:00 UTC

Apr-3@
00:00 UTC

Apr-3 @ 00:00 UTC

FM021500 23019G29KT P6SM SCT040

From

From Standard forecast or significant change

Wind
  • 230° at 19 KTS
  • {Gusting to 29 KTS
Cloud Levels
  • Scattered at 4,000' AGL